Time;durP1;ratioP1;P1;durP2;ratioP2;P2;SDS_P1;SDS_P2;PMS_P1;PMS_P2;Temp;Humidity;BMP_temperature;BMP_pressure;BME280_temperature;BME280_humidity;BME280_pressure;Samples;Min_cycle;Max_cycle;Signal;HPM_P1;HPM_P2
2022/09/07 00:00:09;;;;;;;23.73;17.47;;;17.40;99.90;;;;;;4174430;28;20248;-74
2022/09/07 00:02:11;;;;;;;23.83;16.53;;;17.40;99.90;;;;;;4171149;28;20207;-74
2022/09/07 00:04:12;;;;;;;23.17;16.77;;;17.40;99.90;;;;;;4166663;28;20204;-74
2022/09/07 00:06:15;;;;;;;21.03;16.60;;;17.40;99.90;;;;;;4174923;28;20243;-74
2022/09/07 00:08:18;;;;;;;22.40;17.20;;;17.30;99.90;;;;;;4173288;28;20231;-74
2022/09/07 00:10:22;;;;;;;23.60;16.90;;;17.30;99.90;;;;;;4152900;28;20314;-74
2022/09/07 00:12:24;;;;;;;25.27;17.70;;;17.30;99.90;;;;;;4172265;28;20294;-74
2022/09/07 00:14:26;;;;;;;22.10;16.60;;;17.30;99.90;;;;;;4175679;28;20835;-74
2022/09/07 00:16:30;;;;;;;24.57;17.63;;;17.20;99.90;;;;;;4178748;28;20277;-74
2022/09/07 00:18:32;;;;;;;23.77;16.73;;;17.20;99.90;;;;;;4168664;28;20235;-74
2022/09/07 00:20:34;;;;;;;23.67;17.23;;;17.20;99.90;;;;;;4159150;28;20207;-74
2022/09/07 00:22:36;;;;;;;22.17;17.10;;;17.20;99.90;;;;;;4174836;28;20697;-74
2022/09/07 00:24:40;;;;;;;22.50;16.40;;;17.20;99.90;;;;;;4172552;28;20230;-74
2022/09/07 00:26:46;;;;;;;23.07;17.17;;;17.10;99.90;;;;;;4172400;28;20214;-73
2022/09/07 00:28:49;;;;;;;22.70;17.03;;;17.10;99.90;;;;;;4173218;28;21018;-74
2022/09/07 00:30:51;;;;;;;23.40;17.10;;;17.10;99.90;;;;;;4170140;28;20209;-74
2022/09/07 00:32:53;;;;;;;23.33;16.57;;;17.10;99.90;;;;;;4173724;28;20298;-74
2022/09/07 00:34:55;;;;;;;22.63;17.23;;;17.00;99.90;;;;;;4169585;28;20234;-74
2022/09/07 00:36:57;;;;;;;22.57;16.30;;;17.10;99.90;;;;;;4171171;28;20311;-74
2022/09/07 00:38:59;;;;;;;21.43;16.03;;;17.00;99.90;;;;;;4171153;28;20668;-74
2022/09/07 00:41:00;;;;;;;22.87;16.83;;;17.00;99.90;;;;;;4169811;28;20280;-74
2022/09/07 00:43:04;;;;;;;22.77;16.83;;;17.00;99.90;;;;;;4172981;28;20215;-75
2022/09/07 00:45:09;;;;;;;20.20;15.20;;;17.00;99.90;;;;;;4153272;28;20220;-75
2022/09/07 00:47:18;;;;;;;20.90;15.50;;;17.00;99.90;;;;;;4167691;28;21164;-75
2022/09/07 00:49:22;;;;;;;22.63;16.83;;;16.90;99.90;;;;;;4169875;28;20757;-75
2022/09/07 00:51:32;;;;;;;22.67;16.50;;;16.90;99.90;;;;;;4170842;28;20269;-75
2022/09/07 00:53:39;;;;;;;20.67;14.83;;;16.90;99.90;;;;;;4170963;28;20206;-75
2022/09/07 00:55:44;;;;;;;21.93;15.20;;;16.90;99.90;;;;;;4153802;28;20203;-75
2022/09/07 00:57:49;;;;;;;21.27;15.77;;;16.90;99.90;;;;;;4166116;28;20766;-75
2022/09/07 00:59:54;;;;;;;21.30;14.97;;;16.80;99.90;;;;;;4168060;28;20195;-75
2022/09/07 01:01:56;;;;;;;21.07;15.90;;;16.80;99.90;;;;;;4169876;28;20208;-74
2022/09/07 01:04:00;;;;;;;21.27;15.50;;;16.80;99.90;;;;;;4154968;28;20212;-74
2022/09/07 01:06:07;;;;;;;22.30;16.30;;;16.80;99.90;;;;;;4172724;28;20256;-74
2022/09/07 01:08:11;;;;;;;22.30;16.23;;;16.80;99.90;;;;;;4155546;28;20334;-74
2022/09/07 01:10:13;;;;;;;22.00;15.43;;;16.70;99.90;;;;;;4166892;28;20297;-74
2022/09/07 01:12:15;;;;;;;22.83;16.30;;;16.70;99.90;;;;;;4168737;28;20726;-75
2022/09/07 01:14:20;;;;;;;22.23;15.93;;;16.70;99.90;;;;;;4173145;28;20202;-74
2022/09/07 01:16:36;;;;;;;20.20;15.07;;;16.70;99.90;;;;;;4169523;28;20282;-74
2022/09/07 01:18:52;;;;;;;19.23;14.13;;;16.70;99.90;;;;;;4171623;28;20230;-74
2022/09/07 01:21:27;;;;;;;22.67;15.73;;;16.70;99.90;;;;;;4171987;28;20616;-74
2022/09/07 01:24:15;;;;;;;19.50;14.60;;;16.60;99.90;;;;;;4153515;28;20300;-74
2022/09/07 01:27:01;;;;;;;19.43;14.17;;;16.60;99.90;;;;;;4132014;28;20242;-74
2022/09/07 01:29:13;;;;;;;21.10;14.97;;;16.60;99.90;;;;;;4173477;28;20224;-74
2022/09/07 01:31:22;;;;;;;21.30;15.30;;;16.60;99.90;;;;;;4159326;28;20243;-74
2022/09/07 01:33:40;;;;;;;21.43;15.07;;;16.60;99.90;;;;;;4173492;28;20201;-74
2022/09/07 01:35:49;;;;;;;21.17;15.37;;;16.50;99.90;;;;;;4173712;28;20706;-74
2022/09/07 01:38:00;;;;;;;22.53;15.17;;;16.50;99.90;;;;;;4172638;28;20795;-74
2022/09/07 01:40:13;;;;;;;21.13;15.47;;;16.50;99.90;;;;;;4169453;28;20275;-74
2022/09/07 01:42:22;;;;;;;20.00;14.87;;;16.50;99.90;;;;;;4168505;28;20281;-74
2022/09/07 01:44:28;;;;;;;22.40;15.97;;;16.50;99.90;;;;;;4176990;28;20719;-74
2022/09/07 01:46:35;;;;;;;21.77;15.57;;;16.50;99.90;;;;;;4170949;28;20221;-74
2022/09/07 01:48:39;;;;;;;22.13;16.13;;;16.50;99.90;;;;;;4169265;28;20218;-74
2022/09/07 01:50:47;;;;;;;19.27;14.70;;;16.40;99.90;;;;;;4172575;28;20214;-73
2022/09/07 01:52:54;;;;;;;21.87;15.60;;;16.40;99.90;;;;;;4172318;28;20659;-74
2022/09/07 01:55:01;;;;;;;20.37;15.57;;;16.40;99.90;;;;;;4170515;28;20226;-74
2022/09/07 01:57:10;;;;;;;21.77;15.83;;;16.40;99.90;;;;;;4168828;28;20216;-74
2022/09/07 01:59:18;;;;;;;21.93;16.03;;;16.40;99.90;;;;;;4171615;28;20298;-74
2022/09/07 02:01:25;;;;;;;22.33;16.23;;;16.40;99.90;;;;;;4168939;28;20252;-73
2022/09/07 02:03:33;;;;;;;20.07;14.80;;;16.40;99.90;;;;;;4174994;28;20198;-74
2022/09/07 02:05:42;;;;;;;21.80;15.37;;;16.40;99.90;;;;;;4174097;28;20276;-74
2022/09/07 02:07:48;;;;;;;23.57;16.00;;;16.40;99.90;;;;;;4152966;28;20235;-74
2022/09/07 02:09:53;;;;;;;22.57;15.93;;;16.40;99.90;;;;;;4171214;28;20286;-74
2022/09/07 02:11:56;;;;;;;20.73;15.40;;;16.40;99.90;;;;;;4168576;28;20209;-74
2022/09/07 02:14:01;;;;;;;22.17;15.73;;;16.30;99.90;;;;;;4169717;28;20210;-74
2022/09/07 02:16:07;;;;;;;20.97;14.93;;;16.30;99.90;;;;;;4161462;28;20199;-74
2022/09/07 02:18:13;;;;;;;21.60;15.13;;;16.30;99.90;;;;;;4174663;28;20226;-74
2022/09/07 02:20:18;;;;;;;20.07;14.87;;;16.30;99.90;;;;;;4171831;28;20199;-74
2022/09/07 02:22:25;;;;;;;21.87;15.23;;;16.30;99.90;;;;;;4170603;28;20212;-74
2022/09/07 02:24:32;;;;;;;23.80;16.57;;;16.30;99.90;;;;;;4174309;28;20242;-73
2022/09/07 02:26:38;;;;;;;21.73;15.67;;;16.30;99.90;;;;;;4173824;28;20302;-74
2022/09/07 02:28:41;;;;;;;21.03;14.93;;;16.30;99.90;;;;;;4168016;28;20596;-74
2022/09/07 02:30:43;;;;;;;21.17;14.87;;;16.30;99.90;;;;;;4177959;28;20839;-74
2022/09/07 02:32:45;;;;;;;20.87;14.43;;;16.30;99.90;;;;;;4173843;28;20226;-74
2022/09/07 02:34:50;;;;;;;21.73;15.83;;;16.30;99.90;;;;;;4171555;28;20593;-74
2022/09/07 02:36:53;;;;;;;22.47;15.37;;;16.30;99.90;;;;;;4176336;28;20206;-74
2022/09/07 02:38:55;;;;;;;19.40;14.03;;;16.20;99.90;;;;;;4179195;28;20276;-74
2022/09/07 02:40:59;;;;;;;20.43;14.80;;;16.20;99.90;;;;;;4174241;28;20234;-74
2022/09/07 02:43:10;;;;;;;22.37;15.90;;;16.20;99.90;;;;;;4176823;28;20289;-73
2022/09/07 02:45:13;;;;;;;21.13;14.90;;;16.20;99.90;;;;;;4168907;28;20277;-73
2022/09/07 02:47:30;;;;;;;19.83;14.60;;;16.20;99.90;;;;;;4171955;28;20561;-73
2022/09/07 02:49:45;;;;;;;18.67;13.43;;;16.30;99.90;;;;;;4173333;28;20268;-73
2022/09/07 02:52:01;;;;;;;18.23;13.10;;;16.20;99.90;;;;;;4169555;28;20214;-73
2022/09/07 02:54:25;;;;;;;19.03;14.10;;;16.30;99.90;;;;;;4176586;28;20686;-73
2022/09/07 02:56:41;;;;;;;19.47;14.30;;;16.30;99.90;;;;;;4160430;28;20207;-73
2022/09/07 02:58:49;;;;;;;19.27;13.73;;;16.30;99.90;;;;;;4172955;28;20281;-74
2022/09/07 03:00:58;;;;;;;18.97;13.80;;;16.30;99.90;;;;;;4174666;28;20237;-73
2022/09/07 03:03:09;;;;;;;19.90;14.00;;;16.30;99.90;;;;;;4168005;28;20228;-74
2022/09/07 03:05:16;;;;;;;22.33;14.57;;;16.30;99.90;;;;;;4180377;28;20289;-73
2022/09/07 03:07:24;;;;;;;19.10;13.73;;;16.30;99.90;;;;;;4172333;28;20214;-74
2022/09/07 03:09:30;;;;;;;21.03;14.67;;;16.30;99.90;;;;;;4178927;28;20209;-73
2022/09/07 03:11:35;;;;;;;19.17;13.93;;;16.30;99.90;;;;;;4175072;28;20195;-73
2022/09/07 03:13:37;;;;;;;21.73;15.47;;;16.30;99.90;;;;;;4165580;28;20211;-73
2022/09/07 03:15:39;;;;;;;20.10;14.73;;;16.30;99.90;;;;;;4170465;28;20655;-74
2022/09/07 03:17:41;;;;;;;20.53;14.60;;;16.40;99.90;;;;;;4165180;28;20254;-74
2022/09/07 03:19:43;;;;;;;18.87;13.90;;;16.40;99.90;;;;;;4158479;28;20555;-73
2022/09/07 03:21:45;;;;;;;22.17;15.57;;;16.30;99.90;;;;;;4179996;28;20222;-74
2022/09/07 03:23:49;;;;;;;20.97;14.83;;;16.40;99.90;;;;;;4176958;28;20206;-72
2022/09/07 03:25:53;;;;;;;20.17;14.60;;;16.40;99.90;;;;;;4173405;28;20231;-72
2022/09/07 03:27:55;;;;;;;21.60;15.20;;;16.40;99.90;;;;;;4169561;28;20230;-73
2022/09/07 03:29:57;;;;;;;20.90;15.80;;;16.40;99.90;;;;;;4180986;28;20198;-74
2022/09/07 03:31:59;;;;;;;23.83;16.53;;;16.40;99.90;;;;;;4155978;28;20207;-74
2022/09/07 03:34:01;;;;;;;20.30;14.87;;;16.40;99.90;;;;;;4172741;28;20675;-74
2022/09/07 03:36:03;;;;;;;21.63;15.63;;;16.40;99.90;;;;;;4171170;28;20294;-73
2022/09/07 03:38:05;;;;;;;24.57;16.70;;;16.50;99.90;;;;;;4175437;28;20309;-74
2022/09/07 03:40:10;;;;;;;22.60;15.77;;;16.50;99.90;;;;;;4173094;28;20289;-73
2022/09/07 03:42:12;;;;;;;21.13;15.03;;;16.50;99.90;;;;;;4171128;28;20203;-73
2022/09/07 03:44:14;;;;;;;25.30;18.27;;;16.50;99.90;;;;;;4172661;28;20226;-73
2022/09/07 03:46:18;;;;;;;24.53;16.97;;;16.50;99.90;;;;;;4169449;28;20318;-73
2022/09/07 03:48:20;;;;;;;21.13;15.17;;;16.40;99.90;;;;;;4171722;28;20230;-74
2022/09/07 03:50:22;;;;;;;20.60;15.20;;;16.50;99.90;;;;;;4176670;28;20239;-73
2022/09/07 03:52:23;;;;;;;21.30;14.93;;;16.40;99.90;;;;;;4177016;28;20219;-74
2022/09/07 03:54:28;;;;;;;21.30;15.03;;;16.50;99.90;;;;;;4173343;28;20297;-74
2022/09/07 03:56:31;;;;;;;22.17;16.17;;;16.50;99.90;;;;;;4172707;28;20194;-73
2022/09/07 03:58:34;;;;;;;20.60;15.33;;;16.50;99.90;;;;;;4159081;28;20611;-73
2022/09/07 04:00:41;;;;;;;21.03;15.23;;;16.50;99.90;;;;;;4154634;28;20218;-73
2022/09/07 04:02:43;;;;;;;21.37;16.10;;;16.50;99.90;;;;;;4172646;28;20290;-73
2022/09/07 04:04:45;;;;;;;21.03;14.60;;;16.50;99.90;;;;;;4146235;28;20303;-73
2022/09/07 04:06:47;;;;;;;21.10;15.13;;;16.50;99.90;;;;;;4172358;28;20222;-73
2022/09/07 04:08:49;;;;;;;22.47;15.30;;;16.50;99.90;;;;;;4176974;28;20241;-73
2022/09/07 04:10:51;;;;;;;18.80;14.43;;;16.50;99.90;;;;;;4171348;28;20207;-73
2022/09/07 04:12:54;;;;;;;20.53;15.27;;;16.50;99.90;;;;;;4173385;28;20211;-73
2022/09/07 04:14:56;;;;;;;19.07;13.87;;;16.50;99.90;;;;;;4174836;28;20210;-73
2022/09/07 04:16:58;;;;;;;21.80;14.27;;;16.50;99.90;;;;;;4175547;28;20215;-73
2022/09/07 04:19:00;;;;;;;20.40;15.27;;;16.50;99.90;;;;;;4163920;28;20227;-73
2022/09/07 04:21:02;;;;;;;19.83;14.40;;;16.60;99.90;;;;;;4179075;28;20256;-73
2022/09/07 04:23:04;;;;;;;19.70;14.33;;;16.50;99.90;;;;;;4167028;28;20272;-72
2022/09/07 04:25:06;;;;;;;22.13;15.47;;;16.60;99.90;;;;;;4175066;28;20616;-73
2022/09/07 04:27:08;;;;;;;23.23;16.17;;;16.60;99.90;;;;;;4173005;28;20211;-74
2022/09/07 04:29:12;;;;;;;20.83;14.83;;;16.60;99.90;;;;;;4159438;28;20322;-74
2022/09/07 04:31:15;;;;;;;20.50;14.67;;;16.60;99.90;;;;;;4174410;28;20642;-73
2022/09/07 04:33:17;;;;;;;22.17;16.03;;;16.60;99.90;;;;;;4173170;28;20209;-74
2022/09/07 04:35:19;;;;;;;19.97;14.60;;;16.60;99.90;;;;;;4172239;28;20211;-73
2022/09/07 04:37:21;;;;;;;20.10;14.03;;;16.60;99.90;;;;;;4169869;28;20206;-74
2022/09/07 04:39:23;;;;;;;22.27;15.30;;;16.60;99.90;;;;;;4171121;28;20285;-73
2022/09/07 04:41:27;;;;;;;20.73;15.10;;;16.60;99.90;;;;;;4176223;28;20624;-73
2022/09/07 04:43:29;;;;;;;19.23;13.80;;;16.60;99.90;;;;;;4176000;28;20679;-74
2022/09/07 04:45:33;;;;;;;19.13;14.03;;;16.60;99.90;;;;;;4168802;28;20213;-74
2022/09/07 04:47:35;;;;;;;20.30;14.50;;;16.60;99.90;;;;;;4173542;28;20313;-74
2022/09/07 04:49:37;;;;;;;20.43;14.53;;;16.60;99.90;;;;;;4178044;28;20781;-73
2022/09/07 04:51:41;;;;;;;22.90;15.47;;;16.60;99.90;;;;;;4171252;28;20293;-73
2022/09/07 04:53:43;;;;;;;19.17;14.17;;;16.60;99.90;;;;;;4149870;28;20208;-75
2022/09/07 04:55:45;;;;;;;20.20;14.33;;;16.60;99.90;;;;;;4175083;28;20211;-74
2022/09/07 04:57:49;;;;;;;21.30;15.27;;;16.60;99.90;;;;;;4175448;28;20783;-74
2022/09/07 04:59:51;;;;;;;22.90;16.50;;;16.60;99.90;;;;;;4167669;28;20202;-74
2022/09/07 05:01:58;;;;;;;20.27;14.33;;;16.60;99.90;;;;;;4167163;28;20249;-74
2022/09/07 05:04:03;;;;;;;22.03;15.43;;;16.60;99.90;;;;;;4171952;28;20549;-74
2022/09/07 05:06:07;;;;;;;20.57;15.23;;;16.60;99.90;;;;;;4175849;28;20206;-74
2022/09/07 05:08:09;;;;;;;22.17;15.30;;;16.70;99.90;;;;;;4171425;28;20233;-74
2022/09/07 05:10:11;;;;;;;21.97;16.30;;;16.70;99.90;;;;;;4175093;28;20234;-74
2022/09/07 05:12:13;;;;;;;23.90;16.17;;;16.70;99.90;;;;;;4178295;28;20297;-74
2022/09/07 05:14:15;;;;;;;21.17;14.90;;;16.70;99.90;;;;;;4170252;28;20245;-74
2022/09/07 05:16:19;;;;;;;20.80;14.97;;;16.70;99.90;;;;;;4172297;28;20230;-75
2022/09/07 05:18:23;;;;;;;21.67;15.63;;;16.70;99.90;;;;;;4171388;28;20341;-74
2022/09/07 05:20:24;;;;;;;22.33;16.17;;;16.70;99.90;;;;;;4171519;28;20209;-73
2022/09/07 05:22:29;;;;;;;21.43;14.87;;;16.70;99.90;;;;;;4176575;28;20680;-75
2022/09/07 05:24:33;;;;;;;20.23;15.13;;;16.70;99.90;;;;;;4171480;28;20214;-75
2022/09/07 05:26:38;;;;;;;21.00;15.70;;;16.70;99.90;;;;;;4168229;28;20252;-75
2022/09/07 05:28:40;;;;;;;21.10;14.00;;;16.70;99.90;;;;;;4176078;28;20687;-75
2022/09/07 05:30:42;;;;;;;19.60;13.50;;;16.70;99.90;;;;;;4177471;28;20238;-75
2022/09/07 05:32:45;;;;;;;21.00;14.40;;;16.70;99.90;;;;;;4155105;28;20298;-75
2022/09/07 05:34:49;;;;;;;20.43;15.20;;;16.70;99.90;;;;;;4167046;28;20202;-75
2022/09/07 05:36:51;;;;;;;19.30;14.73;;;16.70;99.90;;;;;;4161915;28;20202;-76
2022/09/07 05:38:54;;;;;;;19.13;14.30;;;16.70;99.90;;;;;;4170095;28;20261;-76
2022/09/07 05:40:55;;;;;;;19.00;14.40;;;16.70;99.90;;;;;;4168763;28;20225;-75
2022/09/07 05:42:57;;;;;;;19.17;14.03;;;16.70;99.90;;;;;;4167852;28;20667;-76
2022/09/07 05:44:59;;;;;;;19.37;14.17;;;16.80;99.90;;;;;;4150636;28;20629;-76
2022/09/07 05:47:01;;;;;;;20.30;14.67;;;16.80;99.90;;;;;;4169215;28;20787;-75
2022/09/07 05:49:04;;;;;;;19.17;13.73;;;16.80;99.90;;;;;;4163972;28;20637;-75
2022/09/07 05:51:08;;;;;;;19.40;13.70;;;16.80;99.90;;;;;;4170461;28;20203;-75
2022/09/07 05:53:10;;;;;;;19.97;14.33;;;16.80;99.90;;;;;;4170987;28;20207;-76
2022/09/07 05:55:14;;;;;;;19.97;14.00;;;16.90;99.90;;;;;;4169687;28;20207;-76
2022/09/07 05:57:16;;;;;;;16.43;12.20;;;16.90;99.90;;;;;;4157836;28;20322;-77
2022/09/07 05:59:18;;;;;;;20.10;14.40;;;16.90;99.90;;;;;;4153357;28;20286;-75
2022/09/07 06:01:20;;;;;;;16.70;12.30;;;16.90;99.90;;;;;;4171633;28;20228;-73
2022/09/07 06:03:23;;;;;;;15.87;12.37;;;17.00;99.90;;;;;;4159433;28;20281;-73
2022/09/07 06:05:25;;;;;;;16.00;11.87;;;17.00;99.90;;;;;;4171005;28;20207;-74
2022/09/07 06:07:34;;;;;;;17.83;12.80;;;17.00;99.90;;;;;;4157054;28;20253;-74
2022/09/07 06:09:37;;;;;;;16.53;12.27;;;17.10;99.90;;;;;;4160723;28;20241;-74
2022/09/07 06:11:39;;;;;;;16.17;12.23;;;17.10;99.90;;;;;;4169848;28;20211;-75
2022/09/07 06:13:42;;;;;;;15.03;11.40;;;17.20;99.90;;;;;;4176583;28;20263;-74
2022/09/07 06:15:43;;;;;;;16.00;11.70;;;17.30;99.90;;;;;;4177983;28;20241;-75
2022/09/07 06:17:45;;;;;;;13.93;10.70;;;17.20;99.90;;;;;;4176951;28;20276;-75
2022/09/07 06:19:47;;;;;;;14.50;10.60;;;17.30;99.90;;;;;;4177434;28;20204;-75
2022/09/07 06:22:00;;;;;;;14.87;11.20;;;17.30;99.90;;;;;;4155873;28;20212;-75
2022/09/07 06:24:04;;;;;;;17.37;12.03;;;17.40;99.90;;;;;;4172748;28;20228;-75
2022/09/07 06:26:07;;;;;;;16.87;12.57;;;17.40;99.90;;;;;;4169234;28;20208;-75
2022/09/07 06:28:09;;;;;;;16.70;11.43;;;17.40;99.90;;;;;;4173075;28;20235;-75
2022/09/07 06:30:11;;;;;;;14.00;10.60;;;17.50;99.90;;;;;;4170618;28;20226;-74
2022/09/07 06:32:13;;;;;;;14.70;10.87;;;17.50;99.90;;;;;;4175139;28;20235;-75
2022/09/07 06:34:15;;;;;;;13.70;10.50;;;17.50;99.90;;;;;;4171059;28;20214;-76
2022/09/07 06:36:19;;;;;;;12.80;9.53;;;17.60;99.90;;;;;;4171653;28;20734;-75
2022/09/07 06:38:21;;;;;;;15.00;10.97;;;17.60;99.90;;;;;;4157139;28;20258;-75
2022/09/07 06:40:25;;;;;;;16.07;12.53;;;17.70;99.90;;;;;;4155166;28;20717;-75
2022/09/07 06:42:27;;;;;;;14.87;11.20;;;17.70;99.90;;;;;;4157360;28;20208;-75
2022/09/07 06:44:28;;;;;;;13.37;10.37;;;17.80;99.90;;;;;;4162748;28;20697;-75
2022/09/07 06:46:30;;;;;;;12.47;9.53;;;17.80;99.90;;;;;;4172210;28;20218;-75
2022/09/07 06:48:33;;;;;;;12.13;9.20;;;17.90;99.90;;;;;;4155839;28;20307;-75
2022/09/07 06:50:35;;;;;;;12.07;9.83;;;17.90;99.90;;;;;;4172226;28;20282;-75
2022/09/07 06:52:38;;;;;;;13.60;9.73;;;18.00;99.90;;;;;;4172066;28;20218;-75
2022/09/07 06:54:40;;;;;;;11.03;8.27;;;18.00;99.90;;;;;;4169438;28;20216;-75
2022/09/07 06:56:43;;;;;;;14.03;10.20;;;18.10;99.90;;;;;;4175666;28;20714;-75
2022/09/07 06:58:46;;;;;;;10.23;8.03;;;18.20;99.90;;;;;;4172491;28;20604;-75
2022/09/07 07:00:48;;;;;;;11.33;8.80;;;18.20;99.90;;;;;;4170931;28;20267;-75
2022/09/07 07:02:49;;;;;;;10.23;7.73;;;18.30;99.90;;;;;;4154379;28;20247;-75
2022/09/07 07:04:51;;;;;;;9.03;7.33;;;18.30;99.90;;;;;;4170453;28;20257;-75
2022/09/07 07:06:53;;;;;;;9.37;7.27;;;18.40;99.90;;;;;;4172064;28;20686;-75
2022/09/07 07:08:55;;;;;;;9.30;7.23;;;18.40;99.90;;;;;;4175987;28;20289;-75
2022/09/07 07:11:01;;;;;;;8.87;7.07;;;18.50;99.90;;;;;;4152655;28;20309;-75
2022/09/07 07:13:05;;;;;;;9.53;7.53;;;18.60;99.90;;;;;;4173659;28;20214;-74
2022/09/07 07:15:08;;;;;;;10.30;8.13;;;18.60;99.90;;;;;;4174471;28;20290;-73
2022/09/07 07:17:10;;;;;;;10.13;8.13;;;18.70;99.90;;;;;;4172008;28;20223;-74
2022/09/07 07:19:12;;;;;;;11.47;9.17;;;18.70;99.90;;;;;;4171363;28;20643;-74
2022/09/07 07:21:15;;;;;;;10.30;8.40;;;18.80;99.90;;;;;;4173706;28;20207;-74
2022/09/07 07:23:17;;;;;;;10.93;8.20;;;18.90;99.90;;;;;;4173901;28;20296;-74
2022/09/07 07:25:19;;;;;;;11.30;8.03;;;19.00;99.90;;;;;;4153134;28;20250;-74
2022/09/07 07:27:21;;;;;;;11.10;8.73;;;19.10;99.90;;;;;;4170308;28;20292;-74
2022/09/07 07:29:24;;;;;;;9.83;8.07;;;19.20;99.90;;;;;;4152122;28;20709;-74
2022/09/07 07:31:27;;;;;;;10.07;8.30;;;19.30;99.90;;;;;;4169147;28;20242;-74
2022/09/07 07:33:30;;;;;;;8.63;7.40;;;19.40;99.90;;;;;;4154298;28;20222;-74
2022/09/07 07:35:32;;;;;;;10.00;8.20;;;19.50;99.90;;;;;;4172809;28;20208;-74
2022/09/07 07:37:35;;;;;;;9.83;7.57;;;19.60;99.90;;;;;;4154848;28;20708;-74
2022/09/07 07:39:37;;;;;;;9.80;7.70;;;19.70;99.90;;;;;;4172556;28;20276;-74
2022/09/07 07:41:39;;;;;;;8.83;7.00;;;19.80;99.90;;;;;;4172393;28;20215;-74
2022/09/07 07:43:41;;;;;;;7.70;6.90;;;19.90;99.90;;;;;;4152329;28;20211;-74
2022/09/07 07:45:45;;;;;;;7.37;6.57;;;20.00;99.90;;;;;;4171586;28;20284;-75
2022/09/07 07:47:49;;;;;;;9.17;6.87;;;20.10;99.90;;;;;;4172138;28;20244;-74
2022/09/07 07:49:51;;;;;;;11.57;6.83;;;20.30;99.90;;;;;;4163181;28;20199;-75
2022/09/07 07:51:54;;;;;;;9.97;7.30;;;20.40;99.90;;;;;;4168056;28;20489;-75
2022/09/07 07:53:56;;;;;;;10.03;7.03;;;20.40;99.90;;;;;;4171612;28;20242;-74
2022/09/07 07:56:02;;;;;;;6.83;6.13;;;20.60;99.90;;;;;;4169123;28;20306;-74
2022/09/07 07:58:04;;;;;;;10.53;6.70;;;20.70;99.90;;;;;;4152866;28;20238;-74
2022/09/07 08:00:07;;;;;;;7.03;6.10;;;20.80;99.90;;;;;;4172359;28;20620;-74
2022/09/07 08:02:15;;;;;;;8.20;6.10;;;20.90;99.90;;;;;;4173599;28;20191;-74
2022/09/07 08:04:17;;;;;;;7.07;6.37;;;21.00;99.90;;;;;;4174668;28;20256;-75
2022/09/07 08:06:20;;;;;;;7.60;6.20;;;21.20;99.90;;;;;;4168164;28;20231;-75
2022/09/07 08:08:23;;;;;;;9.50;6.17;;;21.20;99.90;;;;;;4170430;28;20232;-74
2022/09/07 08:10:30;;;;;;;8.73;6.07;;;21.40;99.90;;;;;;4175225;28;20238;-74
2022/09/07 08:12:32;;;;;;;8.10;5.60;;;21.40;99.90;;;;;;4169815;28;20208;-74
2022/09/07 08:14:39;;;;;;;8.53;6.37;;;21.60;99.90;;;;;;4171376;28;20265;-74
2022/09/07 08:16:44;;;;;;;6.43;5.70;;;21.60;99.90;;;;;;4170708;28;20689;-74
2022/09/07 08:18:48;;;;;;;6.33;5.67;;;21.70;99.90;;;;;;4169146;28;20313;-74
2022/09/07 08:20:52;;;;;;;8.00;5.87;;;21.80;99.90;;;;;;4154483;28;20217;-74
2022/09/07 08:22:54;;;;;;;6.50;5.80;;;21.80;99.90;;;;;;4154490;28;20213;-74
2022/09/07 08:24:58;;;;;;;8.00;5.67;;;21.90;99.90;;;;;;4169651;28;20629;-73
2022/09/07 08:27:01;;;;;;;7.30;6.00;;;21.90;99.90;;;;;;4173535;28;20210;-74
2022/09/07 08:29:05;;;;;;;5.90;5.10;;;22.00;99.90;;;;;;4168880;28;20229;-74
2022/09/07 08:31:09;;;;;;;6.33;5.50;;;22.00;99.90;;;;;;4172929;28;20632;-74
2022/09/07 08:33:10;;;;;;;6.10;5.50;;;22.00;99.90;;;;;;4167852;28;20284;-74
2022/09/07 08:35:14;;;;;;;7.43;5.40;;;22.10;99.90;;;;;;4175737;28;20576;-74
2022/09/07 08:37:16;;;;;;;6.47;5.60;;;22.10;99.90;;;;;;4173116;28;20220;-74
2022/09/07 08:39:18;;;;;;;7.03;5.73;;;22.10;99.90;;;;;;4173255;28;20213;-74
2022/09/07 08:41:46;;;;;;;7.67;5.47;;;22.20;99.90;;;;;;4169770;28;20201;-74
2022/09/07 08:43:52;;;;;;;7.20;5.20;;;22.20;99.90;;;;;;4172128;28;20247;-74
2022/09/07 08:46:00;;;;;;;7.47;5.20;;;22.30;99.90;;;;;;4170658;28;20242;-74
2022/09/07 08:48:06;;;;;;;6.17;5.23;;;22.30;99.90;;;;;;4169891;28;20314;-74
2022/09/07 08:50:15;;;;;;;5.57;4.83;;;22.40;99.90;;;;;;4151583;28;20220;-74
2022/09/07 08:52:22;;;;;;;6.00;5.07;;;22.40;99.90;;;;;;4168883;28;20207;-74
2022/09/07 08:54:24;;;;;;;6.23;4.97;;;22.40;99.90;;;;;;4171842;28;20210;-74
2022/09/07 08:56:30;;;;;;;6.37;5.13;;;22.50;99.90;;;;;;4175033;28;20229;-74
2022/09/07 08:58:42;;;;;;;5.30;4.80;;;22.50;99.90;;;;;;4171038;28;20226;-74
2022/09/07 09:00:43;;;;;;;5.40;4.90;;;22.60;99.90;;;;;;4177239;28;20201;-74
2022/09/07 09:02:46;;;;;;;7.30;5.23;;;22.60;99.90;;;;;;4168179;28;20206;-74
2022/09/07 09:04:48;;;;;;;5.87;5.27;;;22.60;99.90;;;;;;4178975;28;20216;-74
2022/09/07 09:07:09;;;;;;;6.23;5.00;;;22.60;99.90;;;;;;4170284;28;20203;-74
2022/09/07 09:09:23;;;;;;;6.43;4.97;;;22.70;99.90;;;;;;4173061;28;20256;-74
2022/09/07 09:11:38;;;;;;;6.20;5.20;;;22.70;99.90;;;;;;4169516;28;20210;-74
2022/09/07 09:13:53;;;;;;;7.10;5.37;;;22.80;99.90;;;;;;4159557;28;20309;-74
2022/09/07 09:16:01;;;;;;;8.80;5.23;;;22.80;99.90;;;;;;4172773;28;20210;-74
2022/09/07 09:18:19;;;;;;;7.07;5.30;;;22.80;99.90;;;;;;4169264;28;20253;-74
2022/09/07 09:20:26;;;;;;;6.80;5.07;;;22.90;99.90;;;;;;4168416;28;20202;-74
2022/09/07 09:22:28;;;;;;;7.80;5.13;;;23.00;99.90;;;;;;4167931;28;20210;-74
2022/09/07 09:24:36;;;;;;;5.77;4.73;;;23.10;99.90;;;;;;4154148;28;20354;-76
2022/09/07 09:26:40;;;;;;;9.50;5.30;;;23.20;99.90;;;;;;4168352;28;20619;-74
2022/09/07 09:28:42;;;;;;;6.77;5.70;;;23.20;99.90;;;;;;4162906;28;20234;-74
2022/09/07 09:30:43;;;;;;;7.83;5.67;;;23.30;99.90;;;;;;4156595;28;20214;-74
2022/09/07 09:32:48;;;;;;;6.73;5.63;;;23.30;99.90;;;;;;4171557;28;20687;-74
2022/09/07 09:35:01;;;;;;;8.23;5.17;;;23.40;99.90;;;;;;4169367;28;20276;-74
2022/09/07 09:37:03;;;;;;;7.37;6.00;;;23.40;99.90;;;;;;4171844;28;20675;-74
2022/09/07 09:39:26;;;;;;;9.57;6.27;;;23.40;99.90;;;;;;4154337;28;20229;-74
2022/09/07 09:41:36;;;;;;;8.80;5.83;;;23.40;99.90;;;;;;4169150;28;20567;-74
2022/09/07 09:43:44;;;;;;;8.53;6.00;;;23.50;99.90;;;;;;4170010;28;20244;-74
2022/09/07 09:45:49;;;;;;;10.27;5.90;;;23.50;99.90;;;;;;4171243;28;20211;-74
2022/09/07 09:47:53;;;;;;;9.17;6.10;;;23.50;99.90;;;;;;4169967;28;20227;-74
2022/09/07 09:49:58;;;;;;;8.70;5.73;;;23.60;99.90;;;;;;4169577;28;20281;-74
2022/09/07 09:52:04;;;;;;;9.53;5.93;;;23.60;99.90;;;;;;4170075;28;20676;-74
2022/09/07 09:54:15;;;;;;;7.60;5.90;;;23.70;99.90;;;;;;4168840;28;20297;-75
2022/09/07 09:56:18;;;;;;;6.77;5.37;;;23.80;99.90;;;;;;4151216;28;20231;-75
2022/09/07 09:58:30;;;;;;;6.70;5.60;;;23.80;99.90;;;;;;4173138;28;20226;-75
2022/09/07 10:00:34;;;;;;;8.40;5.77;;;23.90;99.90;;;;;;4166426;28;20619;-75
2022/09/07 10:02:36;;;;;;;7.30;5.30;;;23.90;99.90;;;;;;4169150;28;20921;-75
2022/09/07 10:04:38;;;;;;;8.47;5.43;;;24.00;99.90;;;;;;4152393;28;20207;-76
2022/09/07 10:06:49;;;;;;;11.73;5.40;;;24.10;99.90;;;;;;4153674;28;21304;-75
2022/09/07 10:08:56;;;;;;;8.47;5.90;;;24.20;99.90;;;;;;4153771;28;20330;-75
2022/09/07 10:11:00;;;;;;;9.17;5.87;;;24.20;99.90;;;;;;4166391;28;20274;-74
2022/09/07 10:13:02;;;;;;;6.97;5.40;;;24.30;99.90;;;;;;4174159;28;20213;-73
2022/09/07 10:15:07;;;;;;;7.63;5.57;;;24.30;99.90;;;;;;4169941;28;20207;-76
2022/09/07 10:17:14;;;;;;;7.43;5.30;;;24.40;99.90;;;;;;4172615;28;20206;-74
2022/09/07 10:19:29;;;;;;;8.10;5.30;;;24.40;99.90;;;;;;4152952;28;20638;-74
2022/09/07 10:21:32;;;;;;;7.00;5.40;;;24.40;99.90;;;;;;4167166;28;20243;-74
2022/09/07 10:23:34;;;;;;;6.77;5.27;;;24.50;99.90;;;;;;4155341;28;20211;-74
2022/09/07 10:25:38;;;;;;;7.60;5.03;;;24.50;99.90;;;;;;4153280;28;20747;-75
2022/09/07 10:27:45;;;;;;;6.53;5.00;;;24.60;99.90;;;;;;4170243;28;20304;-74
2022/09/07 10:29:47;;;;;;;7.70;5.20;;;24.60;99.90;;;;;;4170664;28;20234;-74
2022/09/07 10:32:02;;;;;;;7.23;5.07;;;24.60;99.90;;;;;;4171617;28;20858;-75
2022/09/07 10:34:14;;;;;;;6.00;5.17;;;24.70;99.90;;;;;;4170070;28;20198;-74
2022/09/07 10:36:22;;;;;;;7.80;5.37;;;24.80;99.90;;;;;;4172185;28;20213;-74
2022/09/07 10:38:26;;;;;;;9.20;5.57;;;24.80;99.90;;;;;;4170417;28;20222;-74